Time;durP1;ratioP1;P1;durP2;ratioP2;P2;SDS_P1;SDS_P2;PMS_P1;PMS_P2;Temp;Humidity;BMP_temperature;BMP_pressure;BME280_temperature;BME280_humidity;BME280_pressure;Samples;Min_cycle;Max_cycle;Signal;HPM_P1;HPM_P2
2021/06/02 00:02:19;;;;;;;9.43;5.20;;;;;;;19.74;53.46;100769.06;3518224;40;20049;-79
2021/06/02 00:04:48;;;;;;;10.25;5.68;;;;;;;19.74;53.86;100769.91;3511533;40;20576;-79
2021/06/02 00:07:29;;;;;;;11.20;5.72;;;;;;;19.74;52.76;100764.59;3494187;40;20062;-79
2021/06/02 00:09:59;;;;;;;8.68;4.78;;;;;;;19.73;53.16;100768.22;3514010;40;20412;-78
2021/06/02 00:12:27;;;;;;;12.20;5.55;;;;;;;19.70;53.20;100757.78;3500817;40;20058;-78
2021/06/02 00:14:55;;;;;;;10.23;5.32;;;;;;;19.61;53.78;100745.06;3534080;40;20043;-78
2021/06/02 00:17:22;;;;;;;11.07;6.07;;;;;;;19.64;54.48;100747.56;3531512;40;20125;-78
2021/06/02 00:19:53;;;;;;;8.75;4.80;;;;;;;19.62;52.29;100746.81;3534337;40;20404;-78
2021/06/02 00:22:23;;;;;;;9.63;5.82;;;;;;;19.55;54.54;100738.31;3519761;40;20082;-78
2021/06/02 00:24:51;;;;;;;10.45;5.95;;;;;;;19.54;54.43;100738.41;3516433;40;20042;-78
2021/06/02 00:27:22;;;;;;;9.27;5.25;;;;;;;19.49;53.44;100733.41;3514704;40;20057;-78
2021/06/02 00:29:51;;;;;;;11.73;7.18;;;;;;;19.42;54.73;100732.91;3541191;40;20058;-78
2021/06/02 00:32:21;;;;;;;10.27;6.15;;;;;;;19.40;54.00;100729.47;3502089;40;20065;-78
2021/06/02 00:34:50;;;;;;;11.75;6.20;;;;;;;19.31;54.71;100719.47;3504876;40;20417;-78
2021/06/02 00:37:22;;;;;;;11.93;6.65;;;;;;;19.35;54.03;100725.41;3526276;40;20058;-78
2021/06/02 00:39:52;;;;;;;10.80;6.10;;;;;;;19.27;54.64;100709.97;3533848;40;20062;-78
2021/06/02 00:42:28;;;;;;;7.60;4.18;;;;;;;19.30;52.95;100716.88;3509808;40;20148;-78
2021/06/02 00:44:56;;;;;;;10.52;5.55;;;;;;;19.25;55.31;100717.16;3519749;40;20072;-79
2021/06/02 00:47:26;;;;;;;12.77;7.35;;;;;;;19.24;55.54;100718.09;3519944;40;20064;-78
2021/06/02 00:49:53;;;;;;;8.73;5.10;;;;;;;19.19;55.92;100709.56;3527022;40;20053;-78
2021/06/02 00:52:21;;;;;;;14.45;6.70;;;;;;;19.19;55.59;100714.88;3536862;40;20054;-78
2021/06/02 00:54:49;;;;;;;12.68;6.50;;;;;;;19.17;55.89;100727.34;3500009;40;20057;-78
2021/06/02 00:57:26;;;;;;;10.55;6.18;;;;;;;19.14;54.11;100712.47;3518482;40;20062;-78
2021/06/02 01:00:10;;;;;;;11.90;6.45;;;;;;;19.08;55.86;100718.13;3491908;40;20047;-78
2021/06/02 01:02:45;;;;;;;12.63;5.70;;;;;;;19.08;55.36;100723.44;3536775;40;20076;-78
2021/06/02 01:05:17;;;;;;;14.10;7.30;;;;;;;19.01;55.61;100711.50;3529336;40;20113;-78
2021/06/02 01:07:50;;;;;;;8.65;4.70;;;;;;;19.02;55.28;100718.50;3531902;40;20054;-78
2021/06/02 01:10:21;;;;;;;11.60;6.55;;;;;;;18.95;56.39;100706.53;3490357;40;20477;-78
2021/06/02 01:12:53;;;;;;;12.15;6.65;;;;;;;18.95;56.33;100716.28;3528158;40;20054;-78
2021/06/02 01:15:21;;;;;;;14.65;6.47;;;;;;;18.90;56.31;100714.72;3528154;40;20169;-78
2021/06/02 01:17:49;;;;;;;;;;;;;;;18.93;52.57;100714.56;3516204;40;20100;-78
2021/06/02 01:20:18;;;;;;;10.45;5.40;;;;;;;18.89;55.58;100717.47;3532680;40;19938;-78
2021/06/02 01:22:47;;;;;;;8.20;4.35;;;;;;;18.84;55.52;100709.81;3524306;40;20047;-78
2021/06/02 01:25:17;;;;;;;10.55;5.57;;;;;;;18.86;55.51;100726.47;3528363;40;20056;-79
2021/06/02 01:27:47;;;;;;;11.57;5.80;;;;;;;18.82;55.97;100719.63;3491105;40;21047;-78
2021/06/02 01:30:23;;;;;;;10.95;5.38;;;;;;;18.76;55.61;100709.41;3508134;40;20086;-79
2021/06/02 01:32:53;;;;;;;10.57;5.80;;;;;;;18.76;57.01;100709.41;3520893;40;20041;-78
2021/06/02 01:35:58;;;;;;;8.70;5.07;;;;;;;18.75;54.05;100709.47;3537650;40;20071;-78
2021/06/02 01:39:04;;;;;;;13.88;6.28;;;;;;;18.71;54.52;100700.88;3477232;40;20474;-78
2021/06/02 01:41:35;;;;;;;8.45;3.85;;;;;;;18.67;56.23;100701.94;3538698;40;20133;-78
2021/06/02 01:44:34;;;;;;;11.35;6.22;;;;;;;18.64;55.42;100696.81;3525424;40;20053;-78
2021/06/02 01:47:15;;;;;;;8.32;4.20;;;;;;;18.61;54.69;100697.84;3515758;40;20474;-78
2021/06/02 01:50:05;;;;;;;12.27;6.15;;;;;;;18.57;55.07;100690.19;3533701;40;20057;-78
2021/06/02 01:52:51;;;;;;;10.75;5.70;;;;;;;18.56;55.43;100685.84;3516820;40;20053;-78
2021/06/02 01:56:00;;;;;;;12.40;6.40;;;;;;;18.51;55.50;100686.09;3533830;40;20046;-78
2021/06/02 01:58:32;;;;;;;10.85;4.95;;;;;;;18.46;57.04;100682.84;3504549;40;20096;-78
2021/06/02 02:01:29;;;;;;;10.98;5.55;;;;;;;18.44;55.33;100683.84;3516344;40;20061;-79
2021/06/02 02:04:06;;;;;;;10.98;5.78;;;;;;;18.40;57.65;100684.03;3531090;40;20045;-78
2021/06/02 02:07:08;;;;;;;14.13;6.82;;;;;;;18.39;56.37;100695.53;3527495;40;20185;-78
2021/06/02 02:10:07;;;;;;;10.60;5.72;;;;;;;18.38;55.83;100687.69;3537111;40;20069;-78
2021/06/02 02:12:59;;;;;;;9.48;5.20;;;;;;;18.34;57.76;100687.00;3503412;40;20043;-78
2021/06/02 02:16:06;;;;;;;8.90;5.10;;;;;;;18.32;56.20;100680.97;3510658;40;20053;-78
2021/06/02 02:18:50;;;;;;;10.25;5.28;;;;;;;18.22;55.89;100663.91;3506972;40;20126;-78
2021/06/02 02:21:47;;;;;;;9.10;5.25;;;;;;;18.26;56.33;100681.31;3513357;40;20136;-78
2021/06/02 02:24:32;;;;;;;9.45;5.65;;;;;;;18.20;56.46;100671.06;3525931;40;20057;-78
2021/06/02 02:27:24;;;;;;;9.93;5.35;;;;;;;18.20;56.23;100671.06;3517988;40;20047;-78
2021/06/02 02:30:12;;;;;;;11.13;5.72;;;;;;;18.12;56.73;100673.28;3515325;40;20070;-78
2021/06/02 02:33:13;;;;;;;9.60;5.13;;;;;;;18.10;56.62;100676.00;3538565;40;20066;-78
2021/06/02 02:35:58;;;;;;;9.40;5.30;;;;;;;18.06;59.65;100678.91;3515268;40;20121;-78
2021/06/02 02:39:04;;;;;;;10.50;5.15;;;;;;;18.03;57.06;100674.63;3515818;40;20750;-78
2021/06/02 02:42:25;;;;;;;11.75;5.88;;;;;;;17.98;56.51;100665.22;3505910;40;20058;-78
2021/06/02 02:45:22;;;;;;;10.95;5.80;;;;;;;17.85;56.82;100649.22;3528942;40;20049;-77
2021/06/02 02:48:10;;;;;;;12.68;6.13;;;;;;;17.94;59.36;100667.19;3521140;40;20074;-78
2021/06/02 02:51:26;;;;;;;9.18;4.43;;;;;;;17.92;56.20;100660.28;3508925;40;20112;-78
2021/06/02 02:54:09;;;;;;;12.23;6.38;;;;;;;17.91;58.55;100664.72;3491550;40;20540;-78
2021/06/02 02:57:09;;;;;;;10.88;5.45;;;;;;;17.88;57.40;100663.06;3536673;40;20100;-78
2021/06/02 03:00:11;;;;;;;9.55;4.90;;;;;;;17.84;56.77;100647.47;3518416;40;20136;-78
2021/06/02 03:02:54;;;;;;;11.25;5.05;;;;;;;17.84;58.66;100652.75;3524403;40;20078;-78
2021/06/02 03:05:30;;;;;;;13.05;6.35;;;;;;;17.80;59.84;100641.53;3529462;40;20038;-79
2021/06/02 03:08:10;;;;;;;10.20;5.72;;;;;;;17.79;57.97;100647.75;3512138;40;20037;-78
2021/06/02 03:10:49;;;;;;;11.68;5.60;;;;;;;17.75;58.35;100634.78;3512602;40;20054;-78
2021/06/02 03:13:50;;;;;;;13.10;6.20;;;;;;;17.75;57.06;100640.91;3526411;40;20039;-78
2021/06/02 03:16:29;;;;;;;10.73;5.32;;;;;;;17.70;58.23;100634.16;3535354;40;20073;-78
2021/06/02 03:19:08;;;;;;;11.20;5.60;;;;;;;17.67;57.50;100635.16;3517117;40;20045;-78
2021/06/02 03:22:02;;;;;;;9.27;5.20;;;;;;;17.68;56.49;100647.41;3479793;40;20061;-78
2021/06/02 03:24:53;;;;;;;10.30;5.47;;;;;;;17.58;56.97;100628.56;3461824;40;20045;-79
2021/06/02 03:27:44;;;;;;;8.75;4.78;;;;;;;17.61;57.22;100641.59;3503683;40;20049;-78
2021/06/02 03:30:31;;;;;;;10.95;5.53;;;;;;;17.59;57.54;100643.50;3458952;40;21371;-78
2021/06/02 03:33:26;;;;;;;6.70;3.53;;;;;;;17.56;56.18;100640.16;3473667;41;20048;-78
2021/06/02 03:36:20;;;;;;;10.63;5.60;;;;;;;17.52;56.66;100644.72;3507808;40;20047;-78
2021/06/02 03:39:12;;;;;;;10.98;4.88;;;;;;;17.50;56.40;100651.03;3480005;40;20051;-78
2021/06/02 03:41:50;;;;;;;10.88;6.07;;;;;;;17.41;57.60;100643.59;3499976;40;20063;-79
2021/06/02 03:44:24;;;;;;;6.47;3.83;;;;;;;17.43;57.40;100647.00;3491406;40;20557;-78
2021/06/02 03:47:20;;;;;;;7.40;3.92;;;;;;;17.40;57.11;100642.75;3498596;40;20495;-78
2021/06/02 03:50:01;;;;;;;10.68;5.65;;;;;;;17.35;57.46;100635.06;3481025;40;20048;-78
2021/06/02 03:52:44;;;;;;;10.38;5.78;;;;;;;17.33;58.21;100636.06;3494064;40;20056;-78
2021/06/02 03:56:22;;;;;;;10.93;6.05;;;;;;;17.26;56.58;100635.53;3494194;40;21308;-78
2021/06/02 03:59:17;;;;;;;8.48;3.90;;;;;;;17.25;56.86;100633.81;3467316;41;20041;-78
2021/06/02 04:02:28;;;;;;;10.93;6.50;;;;;;;17.21;57.62;100636.69;3461647;41;20751;-78
2021/06/02 04:05:39;;;;;;;8.10;4.70;;;;;;;17.18;57.61;100640.31;3454158;41;20053;-78
2021/06/02 04:08:25;;;;;;;10.45;6.00;;;;;;;17.15;58.77;100637.88;3495104;40;20424;-78
2021/06/02 04:11:10;;;;;;;10.95;5.70;;;;;;;17.11;59.34;100638.94;3455270;40;20043;-78
2021/06/02 04:13:53;;;;;;;8.17;4.00;;;;;;;17.09;57.50;100643.47;3468158;41;21039;-78
2021/06/02 04:16:37;;;;;;;10.05;5.90;;;;;;;17.05;58.77;100649.81;3506205;40;20047;-78
2021/06/02 04:19:17;;;;;;;9.73;4.68;;;;;;;17.02;57.88;100642.03;3530259;40;20070;-78
2021/06/02 04:21:46;;;;;;;12.88;6.25;;;;;;;16.93;60.17;100643.38;3535810;40;20038;-78
2021/06/02 04:24:18;;;;;;;10.57;5.88;;;;;;;16.94;58.47;100644.22;3519688;40;20054;-78
2021/06/02 04:26:47;;;;;;;9.63;5.43;;;;;;;16.89;59.33;100639.19;3520441;40;20050;-79
2021/06/02 04:29:28;;;;;;;12.18;6.45;;;;;;;16.86;58.49;100648.09;3493554;40;20058;-78
2021/06/02 04:32:07;;;;;;;10.32;5.35;;;;;;;16.82;58.06;100646.53;3490432;40;20056;-78
2021/06/02 04:34:37;;;;;;;11.13;5.60;;;;;;;16.82;59.66;100651.81;3499596;40;20338;-78
2021/06/02 04:37:12;;;;;;;10.05;5.82;;;;;;;16.80;59.30;100655.47;3516295;40;20041;-78
2021/06/02 04:39:47;;;;;;;12.52;6.40;;;;;;;16.77;59.13;100647.69;3522145;40;20046;-79
2021/06/02 04:42:33;;;;;;;9.90;5.88;;;;;;;16.69;60.29;100655.97;3518705;40;20079;-78
2021/06/02 04:45:04;;;;;;;9.05;5.03;;;;;;;16.65;59.46;100649.13;3499956;40;20063;-78
2021/06/02 04:47:47;;;;;;;10.50;6.05;;;;;;;16.69;60.73;100655.97;3498443;40;20558;-78
2021/06/02 04:50:31;;;;;;;9.02;5.50;;;;;;;16.68;58.68;100648.13;3513144;40;21132;-79
2021/06/02 04:53:11;;;;;;;11.38;6.05;;;;;;;16.66;59.10;100650.81;3514630;40;20055;-78
2021/06/02 04:56:16;;;;;;;9.43;5.40;;;;;;;16.66;58.68;100650.81;3510677;40;20487;-78
2021/06/02 04:59:03;;;;;;;11.32;5.72;;;;;;;16.65;58.64;100649.13;3513533;40;20054;-78
2021/06/02 05:01:48;;;;;;;8.63;5.03;;;;;;;16.65;59.61;100645.63;3516915;40;20427;-78
2021/06/02 05:04:36;;;;;;;10.80;5.93;;;;;;;16.63;61.71;100648.34;3516410;40;20479;-78
2021/06/02 05:07:48;;;;;;;14.38;7.63;;;;;;;16.65;60.02;100649.13;3557419;40;20079;-78
2021/06/02 05:10:36;;;;;;;8.95;4.43;;;;;;;16.66;59.67;100649.97;3514853;40;20108;-77
2021/06/02 05:13:52;;;;;;;11.13;5.85;;;;;;;16.63;59.06;100637.81;3544136;40;20041;-78
2021/06/02 05:16:51;;;;;;;9.73;4.90;;;;;;;16.68;59.54;100646.34;3549180;40;20055;-78
2021/06/02 05:22:50;;;;;;;9.77;6.03;;;;;;;16.70;59.34;100641.84;3524823;40;20054;-78
2021/06/02 05:25:51;;;;;;;9.73;4.80;;;;;;;16.70;59.86;100647.09;3504509;40;20042;-77
2021/06/02 05:29:17;;;;;;;8.95;4.53;;;;;;;16.72;59.00;100641.78;3510204;40;20105;-77
2021/06/02 05:32:23;;;;;;;10.25;4.93;;;;;;;16.71;60.19;100643.56;3512277;40;20050;-78
2021/06/02 05:35:06;;;;;;;7.40;4.07;;;;;;;16.71;61.22;100643.56;3511074;40;20062;-78
2021/06/02 05:38:15;;;;;;;10.07;5.88;;;;;;;16.76;59.35;100654.75;3505671;40;20052;-78
2021/06/02 05:40:47;;;;;;;12.25;7.22;;;;;;;16.75;62.15;100645.13;3526362;40;20066;-78
2021/06/02 05:43:53;;;;;;;9.43;5.53;;;;;;;16.80;59.42;100643.13;3512270;40;20058;-78
2021/06/02 05:46:41;;;;;;;;;;;;;;;16.83;57.93;100648.25;3490196;40;20062;-78
2021/06/02 05:49:10;;;;;;;;;;;;;;;16.88;57.60;100652.44;3529257;40;20361;-78
2021/06/02 05:52:02;;;;;;;8.48;4.00;;;;;;;16.91;58.91;100652.28;3513078;40;20538;-79
2021/06/02 05:54:41;;;;;;;8.07;4.28;;;;;;;16.93;59.77;100653.06;3535858;40;20066;-78
2021/06/02 05:57:26;;;;;;;11.70;5.32;;;;;;;16.97;59.38;100650.19;3523879;40;20038;-78
2021/06/02 06:00:41;;;;;;;9.98;4.70;;;;;;;17.01;59.46;100651.75;3520468;40;20062;-78
2021/06/02 06:03:47;;;;;;;8.70;5.30;;;;;;;17.06;59.02;100648.88;3504728;40;20034;-78
2021/06/02 06:06:59;;;;;;;8.65;4.53;;;;;;;17.14;58.84;100649.34;3530720;40;20030;-78
2021/06/02 06:10:06;;;;;;;7.03;4.00;;;;;;;17.23;59.06;100648.88;3541062;40;20127;-78
2021/06/02 06:13:10;;;;;;;7.85;4.70;;;;;;;17.31;59.74;100649.34;3531166;40;20483;-78
2021/06/02 06:15:54;;;;;;;7.80;4.40;;;;;;;17.40;60.10;100652.44;3523944;40;20038;-78
2021/06/02 06:18:59;;;;;;;8.45;4.60;;;;;;;17.47;60.14;100653.81;3531123;40;20101;-78
2021/06/02 06:21:35;;;;;;;8.68;4.63;;;;;;;17.56;60.48;100653.34;3531117;40;20061;-77
2021/06/02 06:24:18;;;;;;;7.63;4.20;;;;;;;17.61;60.31;100651.31;3541597;40;20045;-78
2021/06/02 06:27:31;;;;;;;8.38;4.47;;;;;;;17.69;60.17;100637.69;3541747;40;20055;-78
2021/06/02 06:30:13;;;;;;;10.40;5.15;;;;;;;17.82;61.12;100650.22;3510303;40;20046;-78
2021/06/02 06:32:42;;;;;;;7.15;4.00;;;;;;;17.87;61.96;100642.88;3497278;40;20059;-78
2021/06/02 06:35:21;;;;;;;7.25;4.05;;;;;;;17.96;62.03;100645.97;3521820;40;20046;-78
2021/06/02 06:37:55;;;;;;;9.05;5.20;;;;;;;18.05;61.11;100645.47;3512385;40;20054;-78
2021/06/02 06:40:30;;;;;;;10.47;5.23;;;;;;;18.03;60.66;100636.78;3521537;40;20058;-78
2021/06/02 06:42:59;;;;;;;7.20;3.85;;;;;;;18.06;61.56;100641.91;3528715;40;20567;-78
2021/06/02 06:45:34;;;;;;;8.30;4.55;;;;;;;18.15;60.51;100636.97;3514150;40;20055;-79
2021/06/02 06:48:07;;;;;;;8.27;4.32;;;;;;;18.21;61.02;100643.69;3504256;40;20085;-78
2021/06/02 06:50:38;;;;;;;7.68;4.13;;;;;;;18.28;61.28;100646.84;3506028;40;20087;-78
2021/06/02 06:53:08;;;;;;;6.70;3.65;;;;;;;18.34;61.09;100641.22;3498840;40;21140;-78
2021/06/02 06:55:39;;;;;;;6.85;3.75;;;;;;;18.40;61.08;100641.75;3508753;40;20051;-78
2021/06/02 06:58:24;;;;;;;8.93;4.78;;;;;;;18.54;60.50;100635.66;3492569;40;20055;-78
2021/06/02 07:00:53;;;;;;;9.18;4.88;;;;;;;18.60;61.14;100631.81;3490555;40;20085;-78
2021/06/02 07:03:23;;;;;;;7.30;3.72;;;;;;;18.75;61.27;100636.25;3484255;40;20065;-79
2021/06/02 07:06:00;;;;;;;8.45;4.85;;;;;;;18.87;60.56;100640.00;3515052;40;20041;-78
2021/06/02 07:08:35;;;;;;;7.70;4.45;;;;;;;18.99;60.00;100646.34;3487383;40;20051;-78
2021/06/02 07:11:25;;;;;;;8.65;4.97;;;;;;;19.09;59.79;100650.16;3486757;40;20078;-78
2021/06/02 07:13:56;;;;;;;8.70;4.80;;;;;;;19.13;59.83;100641.97;3490137;40;20056;-79
2021/06/02 07:16:29;;;;;;;7.63;4.50;;;;;;;19.21;59.76;100649.47;3492662;40;20040;-78
2021/06/02 07:19:11;;;;;;;7.68;4.63;;;;;;;19.26;58.09;100634.16;3520970;40;20127;-78
2021/06/02 07:21:49;;;;;;;8.07;4.30;;;;;;;19.37;58.24;100650.25;3539996;40;20054;-79
2021/06/02 07:24:24;;;;;;;10.57;4.63;;;;;;;19.30;58.52;100629.50;3507070;40;20455;-79
2021/06/02 07:27:14;;;;;;;7.63;3.75;;;;;;;19.37;57.96;100638.81;3505497;40;20047;-78
2021/06/02 07:29:45;;;;;;;7.65;3.75;;;;;;;19.47;57.75;100647.03;3519228;40;20085;-78
2021/06/02 07:32:17;;;;;;;7.45;3.75;;;;;;;19.44;57.96;100646.25;3519600;40;20083;-78
2021/06/02 07:34:51;;;;;;;7.68;3.50;;;;;;;19.53;57.66;100644.03;3526406;40;20056;-78
2021/06/02 07:37:33;;;;;;;6.95;3.58;;;;;;;19.54;58.48;100646.56;3505173;40;20070;-78
2021/06/02 07:40:09;;;;;;;8.15;4.68;;;;;;;19.62;58.13;100643.50;3508789;40;21093;-78
2021/06/02 07:42:40;;;;;;;9.00;4.73;;;;;;;19.60;57.64;100640.06;3556340;23;20047;-79
2021/06/02 07:45:09;;;;;;;;;;;;;;;19.75;56.29;100649.72;3535904;40;20040;-78
2021/06/02 07:47:40;;;;;;;8.77;4.00;;;;;;;19.74;56.91;100642.72;3534135;40;19980;-78
2021/06/02 07:50:09;;;;;;;7.50;4.10;;;;;;;19.77;55.98;100653.16;3515941;40;20062;-79
2021/06/02 07:52:40;;;;;;;9.68;4.93;;;;;;;19.75;56.06;100644.41;3538689;40;20097;-79
2021/06/02 07:55:08;;;;;;;8.25;4.28;;;;;;;19.78;56.09;100644.25;3525739;40;20117;-78
2021/06/02 07:57:37;;;;;;;;;;;;;;;19.94;55.10;100660.03;3531150;40;20067;-79
2021/06/02 08:00:05;;;;;;;5.88;3.45;;;;;;;19.90;55.99;100651.41;3529206;40;20322;-78
2021/06/02 08:02:38;;;;;;;7.80;4.53;;;;;;;19.97;56.06;100641.28;3508011;40;20364;-79
2021/06/02 08:05:07;;;;;;;8.07;4.90;;;;;;;20.04;55.97;100639.13;3481060;40;20103;-78
2021/06/02 08:07:42;;;;;;;8.20;4.75;;;;;;;20.10;54.79;100649.31;3520776;40;20055;-78
2021/06/02 08:10:23;;;;;;;8.15;4.13;;;;;;;20.23;55.35;100641.47;3526103;40;20062;-79
2021/06/02 08:12:53;;;;;;;14.52;5.45;;;;;;;20.26;54.81;100647.41;3514552;40;20051;-78
2021/06/02 08:15:23;;;;;;;11.98;5.13;;;;;;;20.29;54.82;100644.56;3514921;40;20066;-78
2021/06/02 08:17:52;;;;;;;10.20;4.75;;;;;;;20.39;55.16;100644.81;3511779;40;20071;-78
2021/06/02 08:20:46;;;;;;;9.60;4.82;;;;;;;20.50;54.38;100644.16;3521849;40;20054;-78
2021/06/02 08:23:13;;;;;;;12.13;5.30;;;;;;;20.51;55.44;100648.50;3506481;40;20521;-79
2021/06/02 08:25:40;;;;;;;11.23;5.63;;;;;;;20.59;54.54;100651.53;3524365;40;20079;-78
2021/06/02 08:28:13;;;;;;;10.52;5.13;;;;;;;20.70;54.58;100649.84;3529415;40;20061;-78
2021/06/02 08:30:40;;;;;;;11.40;5.88;;;;;;;20.72;53.61;100657.72;3526511;40;20087;-78
2021/06/02 08:33:08;;;;;;;9.33;4.87;;;;;;;20.78;54.08;100652.00;3522843;40;20173;-78
2021/06/02 08:35:35;;;;;;;9.40;5.07;;;;;;;20.87;53.62;100650.53;3520794;40;20285;-79
2021/06/02 08:38:04;;;;;;;10.95;5.32;;;;;;;20.93;53.47;100640.38;3533889;40;20126;-78
2021/06/02 08:40:31;;;;;;;9.55;5.40;;;;;;;21.01;53.40;100641.66;3525949;40;20046;-78
2021/06/02 08:42:59;;;;;;;9.32;5.03;;;;;;;21.09;53.47;100649.97;3533511;40;20046;-78
2021/06/02 08:45:27;;;;;;;9.20;4.88;;;;;;;21.18;53.39;100644.03;3530436;40;20062;-78
2021/06/02 08:47:54;;;;;;;12.30;5.90;;;;;;;21.27;53.16;100654.03;3540264;40;20058;-78
2021/06/02 08:50:22;;;;;;;10.80;5.63;;;;;;;21.36;52.68;100642.81;3532134;40;20091;-78
2021/06/02 08:52:50;;;;;;;14.35;5.43;;;;;;;21.47;52.31;100653.53;3533387;40;20075;-78
2021/06/02 08:55:21;;;;;;;8.82;5.10;;;;;;;21.61;52.31;100649.09;3530714;40;20065;-78
2021/06/02 08:57:51;;;;;;;9.73;5.28;;;;;;;21.67;51.77;100640.69;3534038;40;20046;-79
2021/06/02 09:00:23;;;;;;;11.00;6.15;;;;;;;21.77;51.19;100639.06;3536602;40;20423;-78
2021/06/02 09:02:54;;;;;;;11.50;5.57;;;;;;;21.87;51.09;100648.09;3535958;40;20367;-79
2021/06/02 09:05:26;;;;;;;9.25;5.43;;;;;;;21.96;51.22;100642.16;3533056;40;20080;-78
2021/06/02 09:08:00;;;;;;;9.98;4.50;;;;;;;22.05;51.12;100637.09;3523686;40;20995;-79
2021/06/02 09:10:28;;;;;;;10.65;5.20;;;;;;;22.08;50.41;100640.41;3511972;40;20315;-79
2021/06/02 09:12:59;;;;;;;9.98;5.38;;;;;;;22.16;50.13;100643.41;3531787;40;20101;-79
2021/06/02 09:15:34;;;;;;;12.70;6.20;;;;;;;22.12;50.33;100620.66;3523270;40;20067;-78
2021/06/02 09:18:06;;;;;;;9.88;5.40;;;;;;;22.26;49.77;100643.59;3530329;40;20081;-79
2021/06/02 09:20:44;;;;;;;13.02;5.45;;;;;;;22.37;50.11;100635.69;3515794;40;20765;-78
2021/06/02 09:23:38;;;;;;;9.68;4.38;;;;;;;22.45;50.03;100637.75;3523435;40;20058;-79
2021/06/02 09:26:10;;;;;;;9.30;4.70;;;;;;;22.50;49.41;100636.47;3513299;40;20097;-78
2021/06/02 09:28:49;;;;;;;10.02;4.80;;;;;;;22.62;49.42;100633.88;3514689;40;20085;-79
2021/06/02 09:31:20;;;;;;;11.70;5.53;;;;;;;22.67;48.13;100632.56;3518725;40;20050;-79
2021/06/02 09:33:48;;;;;;;11.05;5.28;;;;;;;22.71;47.76;100622.56;3531171;40;20059;-78
2021/06/02 09:36:17;;;;;;;10.90;5.53;;;;;;;22.74;48.00;100614.31;3535116;40;20113;-79
2021/06/02 09:38:55;;;;;;;8.43;4.90;;;;;;;22.91;47.20;100623.72;3530094;40;20050;-79
2021/06/02 09:41:22;;;;;;;9.63;5.32;;;;;;;22.92;47.52;100626.28;3529491;40;20098;-79
2021/06/02 09:43:57;;;;;;;12.80;5.57;;;;;;;23.09;47.25;100627.66;3534383;40;20054;-79
2021/06/02 09:46:28;;;;;;;11.32;5.53;;;;;;;23.10;46.83;100607.19;3521418;40;20089;-79
2021/06/02 09:49:00;;;;;;;11.70;5.65;;;;;;;23.22;46.33;100615.13;3530327;40;20046;-78
2021/06/02 09:51:29;;;;;;;9.77;4.72;;;;;;;23.29;46.67;100612.81;3532404;40;20065;-79
2021/06/02 09:53:58;;;;;;;13.15;6.18;;;;;;;23.41;45.22;100619.84;3530788;40;20059;-79
2021/06/02 09:56:41;;;;;;;10.70;5.80;;;;;;;23.62;45.98;100625.34;3529198;40;20062;-78
2021/06/02 09:59:10;;;;;;;10.30;5.38;;;;;;;23.73;44.87;100628.03;3526644;40;20054;-79
2021/06/02 10:01:54;;;;;;;12.13;5.78;;;;;;;23.96;45.66;100626.19;3540279;40;20864;-79
2021/06/02 10:04:31;;;;;;;10.50;5.28;;;;;;;24.13;44.87;100614.19;3519409;40;20090;-78
2021/06/02 10:06:59;;;;;;;;;;;;;;;24.43;46.71;100610.00;3537560;40;20075;-79
2021/06/02 10:09:35;;;;;;;10.50;5.47;;;;;;;24.63;44.27;100611.03;3531715;40;20250;-79
2021/06/02 10:12:08;;;;;;;11.63;5.65;;;;;;;24.81;43.19;100609.50;3528754;40;20061;-79
2021/06/02 10:15:04;;;;;;;10.73;5.90;;;;;;;25.03;44.08;100617.38;3524864;40;20348;-79
2021/06/02 10:17:37;;;;;;;11.88;5.15;;;;;;;25.02;42.22;100606.84;3516160;40;20058;-79
2021/06/02 10:20:12;;;;;;;10.27;5.13;;;;;;;25.04;42.48;100600.41;3530873;40;20058;-79
2021/06/02 10:22:40;;;;;;;11.07;5.50;;;;;;;24.93;41.23;100581.75;3535048;40;20062;-79
2021/06/02 10:25:10;;;;;;;9.65;5.38;;;;;;;24.93;40.85;100576.41;3538463;40;20656;-78
2021/06/02 10:27:37;;;;;;;9.32;5.20;;;;;;;24.85;41.41;100579.75;3536813;40;20112;-79
2021/06/02 10:30:08;;;;;;;9.88;5.40;;;;;;;24.78;42.08;100564.34;3529886;40;20054;-78
2021/06/02 10:32:36;;;;;;;11.75;5.88;;;;;;;24.82;41.50;100576.47;3524853;40;20434;-79
2021/06/02 10:35:07;;;;;;;10.10;5.32;;;;;;;24.80;42.57;100554.41;3528149;40;20065;-79
2021/06/02 10:37:39;;;;;;;10.75;5.75;;;;;;;24.89;41.98;100566.09;3536794;40;20791;-79
2021/06/02 10:40:10;;;;;;;12.48;6.05;;;;;;;24.96;41.91;100580.66;3535666;40;20372;-79
2021/06/02 10:42:57;;;;;;;10.82;5.75;;;;;;;25.06;42.84;100579.78;3542043;40;20062;-79
2021/06/02 10:45:29;;;;;;;10.77;5.07;;;;;;;25.09;41.52;100576.84;3526491;40;20050;-80
2021/06/02 10:47:58;;;;;;;9.73;5.55;;;;;;;25.20;41.53;100572.41;3534723;40;20133;-79
2021/06/02 10:50:38;;;;;;;12.10;5.68;;;;;;;25.36;41.71;100583.47;3530296;40;20079;-79
2021/06/02 10:53:24;;;;;;;10.52;5.13;;;;;;;25.47;42.03;100588.72;3525120;40;20444;-80
2021/06/02 10:56:00;;;;;;;10.82;5.80;;;;;;;25.52;40.90;100588.31;3545325;40;20082;-79
2021/06/02 10:58:29;;;;;;;8.70;4.15;;;;;;;25.51;41.43;100587.47;3518755;40;20116;-79
2021/06/02 11:01:19;;;;;;;9.82;5.65;;;;;;;25.55;40.91;100583.56;3552168;40;20760;-79
2021/06/02 11:04:06;;;;;;;10.57;5.03;;;;;;;25.57;41.39;100602.13;3549499;40;20809;-79
2021/06/02 11:06:37;;;;;;;9.27;5.40;;;;;;;25.46;40.30;100586.19;3534701;40;20102;-80
2021/06/02 11:09:12;;;;;;;13.77;5.88;;;;;;;25.47;40.55;100582.53;3520314;40;20491;-79
2021/06/02 11:11:45;;;;;;;9.25;4.95;;;;;;;25.39;40.83;100583.19;3529472;40;20069;-79
2021/06/02 11:14:15;;;;;;;11.20;5.55;;;;;;;25.35;40.41;100584.44;3523353;40;20056;-79
2021/06/02 11:17:00;;;;;;;13.57;6.65;;;;;;;25.30;40.09;100584.00;3530922;40;20098;-79
2021/06/02 11:19:34;;;;;;;9.60;5.47;;;;;;;25.19;39.53;100581.38;3519740;40;20070;-78
2021/06/02 11:22:05;;;;;;;11.50;6.07;;;;;;;25.07;40.18;100578.78;3529845;40;20050;-79
2021/06/02 11:24:32;;;;;;;9.20;4.45;;;;;;;24.97;40.81;100583.19;3542329;40;20108;-79
2021/06/02 11:27:13;;;;;;;17.65;6.88;;;;;;;24.92;40.63;100580.06;3538228;40;20462;-79
2021/06/02 11:29:50;;;;;;;12.57;6.05;;;;;;;24.80;40.89;100575.75;3541021;40;20066;-79
2021/06/02 11:32:31;;;;;;;11.65;6.35;;;;;;;24.69;40.87;100575.81;3538170;40;20048;-79
2021/06/02 11:35:04;;;;;;;11.93;6.03;;;;;;;24.57;40.83;100570.50;3519433;40;20425;-79
2021/06/02 11:37:35;;;;;;;11.90;5.82;;;;;;;24.41;41.53;100554.09;3520108;40;20081;-80
2021/06/02 11:40:10;;;;;;;13.23;5.72;;;;;;;24.40;42.13;100557.72;3530602;40;20070;-79
2021/06/02 11:42:46;;;;;;;11.32;6.30;;;;;;;24.33;42.02;100551.16;3524474;40;20384;-80
2021/06/02 11:45:16;;;;;;;;;;;;;;;24.31;42.30;100561.13;3519039;40;20066;-79
2021/06/02 11:47:49;;;;;;;10.27;5.88;;;;;;;24.16;41.94;100549.03;3530605;40;19996;-79
2021/06/02 11:50:20;;;;;;;11.27;6.00;;;;;;;24.04;41.77;100549.09;3543548;40;20055;-79
2021/06/02 11:53:01;;;;;;;12.50;5.75;;;;;;;23.96;42.30;100559.50;3514782;40;20046;-80
2021/06/02 11:55:31;;;;;;;13.55;5.65;;;;;;;23.77;42.31;100552.19;3525950;40;20051;-79
2021/06/02 11:57:58;;;;;;;12.32;5.78;;;;;;;23.60;42.56;100546.44;3524654;40;20066;-79
2021/06/02 12:00:33;;;;;;;12.63;6.35;;;;;;;23.47;42.47;100547.44;3523736;40;20083;-79
2021/06/02 12:03:03;;;;;;;11.25;5.65;;;;;;;23.35;43.15;100551.03;3512245;40;20062;-79
2021/06/02 12:05:37;;;;;;;11.80;6.35;;;;;;;23.18;43.54;100536.38;3520587;40;20063;-79
2021/06/02 12:08:15;;;;;;;13.07;6.07;;;;;;;23.10;44.14;100548.59;3511620;40;20069;-79
2021/06/02 12:10:44;;;;;;;11.18;5.72;;;;;;;23.00;43.99;100546.66;3507677;40;20047;-79
2021/06/02 12:13:14;;;;;;;8.13;4.55;;;;;;;22.94;44.22;100547.13;3504328;40;20078;-79
2021/06/02 12:15:46;;;;;;;14.40;6.00;;;;;;;22.93;44.46;100542.78;3502072;40;20066;-79
2021/06/02 12:18:28;;;;;;;11.43;5.82;;;;;;;22.95;44.30;100539.97;3505518;40;20055;-79
2021/06/02 12:21:15;;;;;;;11.25;5.95;;;;;;;22.99;45.35;100546.78;3512375;40;20081;-79
2021/06/02 12:23:57;;;;;;;12.57;6.18;;;;;;;23.07;45.24;100543.53;3513407;40;20062;-79